sensor_id;sensor_type;location;lat;lon;timestamp;temperature;humidity
4209;DHT22;36320;48.860;2.380;2022-11-02T05:02:21;17.40;69.80
4209;DHT22;36320;48.860;2.380;2022-11-02T05:04:47;17.30;70.20
4209;DHT22;36320;48.860;2.380;2022-11-02T05:07:12;17.30;69.60
4209;DHT22;36320;48.860;2.380;2022-11-02T05:09:38;17.30;70.10
4209;DHT22;36320;48.860;2.380;2022-11-02T05:12:07;17.30;69.50
4209;DHT22;36320;48.860;2.380;2022-11-02T05:14:33;17.30;69.60
4209;DHT22;36320;48.860;2.380;2022-11-02T05:16:58;17.30;70.20
4209;DHT22;36320;48.860;2.380;2022-11-02T05:19:24;17.30;70.20
4209;DHT22;36320;48.860;2.380;2022-11-02T05:21:49;17.30;70.20
4209;DHT22;36320;48.860;2.380;2022-11-02T05:24:15;17.30;70.20
4209;DHT22;36320;48.860;2.380;2022-11-02T05:26:41;17.30;69.60
4209;DHT22;36320;48.860;2.380;2022-11-02T05:29:07;17.30;69.60
4209;DHT22;36320;48.860;2.380;2022-11-02T05:31:32;17.20;69.50
4209;DHT22;36320;48.860;2.380;2022-11-02T05:33:58;17.20;70.20
4209;DHT22;36320;48.860;2.380;2022-11-02T05:36:24;17.30;70.30
4209;DHT22;36320;48.860;2.380;2022-11-02T05:38:53;17.20;70.10
4209;DHT22;36320;48.860;2.380;2022-11-02T05:41:19;17.30;70.20
4209;DHT22;36320;48.860;2.380;2022-11-02T05:43:45;17.30;70.30
4209;DHT22;36320;48.860;2.380;2022-11-02T05:46:11;17.30;70.30
4209;DHT22;36320;48.860;2.380;2022-11-02T05:48:39;17.30;70.40
4209;DHT22;36320;48.860;2.380;2022-11-02T05:51:05;17.20;70.20
4209;DHT22;36320;48.860;2.380;2022-11-02T05:53:31;17.30;69.70
4209;DHT22;36320;48.860;2.380;2022-11-02T05:56:03;17.20;69.60
4209;DHT22;36320;48.860;2.380;2022-11-02T05:58:29;17.20;70.30
4209;DHT22;36320;48.860;2.380;2022-11-02T06:00:59;17.20;70.30
4209;DHT22;36320;48.860;2.380;2022-11-02T06:03:25;17.20;70.40
4209;DHT22;36320;48.860;2.380;2022-11-02T06:05:58;17.10;70.20
4209;DHT22;36320;48.860;2.380;2022-11-02T06:08:24;17.20;70.40
4209;DHT22;36320;48.860;2.380;2022-11-02T06:10:50;17.20;70.60
4209;DHT22;36320;48.860;2.380;2022-11-02T06:13:17;17.20;70.60
4209;DHT22;36320;48.860;2.380;2022-11-02T06:15:43;17.10;70.60
4209;DHT22;36320;48.860;2.380;2022-11-02T06:18:09;16.90;71.00
4209;DHT22;36320;48.860;2.380;2022-11-02T06:20:34;16.60;71.60
4209;DHT22;36320;48.860;2.380;2022-11-02T06:23:00;16.40;72.40
4209;DHT22;36320;48.860;2.380;2022-11-02T06:25:26;16.20;72.70
4209;DHT22;36320;48.860;2.380;2022-11-02T06:27:53;16.00;73.40
4209;DHT22;36320;48.860;2.380;2022-11-02T06:30:22;15.90;73.70
4209;DHT22;36320;48.860;2.380;2022-11-02T06:32:49;17.00;75.30
4209;DHT22;36320;48.860;2.380;2022-11-02T06:35:16;15.70;74.30
4209;DHT22;36320;48.860;2.380;2022-11-02T06:37:43;15.70;74.70
4209;DHT22;36320;48.860;2.380;2022-11-02T06:40:09;15.70;74.90
4209;DHT22;36320;48.860;2.380;2022-11-02T06:42:35;15.60;75.10
4209;DHT22;36320;48.860;2.380;2022-11-02T06:45:02;14.30;74.50
4209;DHT22;36320;48.860;2.380;2022-11-02T06:47:33;15.30;76.00
4209;DHT22;36320;48.860;2.380;2022-11-02T06:49:59;15.50;76.00
4209;DHT22;36320;48.860;2.380;2022-11-02T06:52:28;15.60;75.80
4209;DHT22;36320;48.860;2.380;2022-11-02T06:54:54;15.60;75.70
4209;DHT22;36320;48.860;2.380;2022-11-02T06:57:20;15.60;75.90
4209;DHT22;36320;48.860;2.380;2022-11-02T06:59:46;15.60;75.90
4209;DHT22;36320;48.860;2.380;2022-11-02T07:02:12;15.50;76.00
4209;DHT22;36320;48.860;2.380;2022-11-02T07:04:38;15.40;76.20
4209;DHT22;36320;48.860;2.380;2022-11-02T07:07:04;15.40;76.20
4209;DHT22;36320;48.860;2.380;2022-11-02T07:09:29;15.40;76.40
4209;DHT22;36320;48.860;2.380;2022-11-02T07:11:55;15.30;76.60
4209;DHT22;36320;48.860;2.380;2022-11-02T07:14:21;15.40;76.60
4209;DHT22;36320;48.860;2.380;2022-11-02T07:16:48;15.50;76.50
4209;DHT22;36320;48.860;2.380;2022-11-02T07:19:14;15.50;76.50
4209;DHT22;36320;48.860;2.380;2022-11-02T07:21:40;15.60;76.50
4209;DHT22;36320;48.860;2.380;2022-11-02T07:24:06;15.50;76.20
4209;DHT22;36320;48.860;2.380;2022-11-02T07:26:31;15.50;76.30
4209;DHT22;36320;48.860;2.380;2022-11-02T07:28:57;15.60;76.50
4209;DHT22;36320;48.860;2.380;2022-11-02T07:31:23;15.70;76.20
4209;DHT22;36320;48.860;2.380;2022-11-02T07:33:50;15.70;76.10
4209;DHT22;36320;48.860;2.380;2022-11-02T07:36:16;15.40;76.10
4209;DHT22;36320;48.860;2.380;2022-11-02T07:38:42;15.60;76.20
4209;DHT22;36320;48.860;2.380;2022-11-02T07:41:08;15.60;76.40
4209;DHT22;36320;48.860;2.380;2022-11-02T07:43:34;15.60;76.30
4209;DHT22;36320;48.860;2.380;2022-11-02T07:46:03;15.50;76.30
4209;DHT22;36320;48.860;2.380;2022-11-02T07:48:30;15.50;76.50
4209;DHT22;36320;48.860;2.380;2022-11-02T07:50:57;15.50;76.50
4209;DHT22;36320;48.860;2.380;2022-11-02T07:53:26;15.50;76.30
4209;DHT22;36320;48.860;2.380;2022-11-02T07:55:52;15.60;76.50
4209;DHT22;36320;48.860;2.380;2022-11-02T07:58:18;15.30;76.70
4209;DHT22;36320;48.860;2.380;2022-11-02T08:00:44;15.30;77.00
4209;DHT22;36320;48.860;2.380;2022-11-02T08:03:10;15.50;77.40
4209;DHT22;36320;48.860;2.380;2022-11-02T08:05:38;15.40;77.10
4209;DHT22;36320;48.860;2.380;2022-11-02T08:08:07;15.40;77.10
4209;DHT22;36320;48.860;2.380;2022-11-02T08:10:35;15.40;77.30
4209;DHT22;36320;48.860;2.380;2022-11-02T08:13:00;15.50;77.10
4209;DHT22;36320;48.860;2.380;2022-11-02T08:15:26;15.50;77.10
4209;DHT22;36320;48.860;2.380;2022-11-02T08:18:03;15.50;77.30
4209;DHT22;36320;48.860;2.380;2022-11-02T08:20:30;15.60;77.40
4209;DHT22;36320;48.860;2.380;2022-11-02T08:22:56;15.60;77.30
4209;DHT22;36320;48.860;2.380;2022-11-02T08:25:24;15.60;77.40
4209;DHT22;36320;48.860;2.380;2022-11-02T08:27:49;15.60;77.50
4209;DHT22;36320;48.860;2.380;2022-11-02T08:30:15;15.60;77.40
4209;DHT22;36320;48.860;2.380;2022-11-02T08:32:41;15.70;77.60
4209;DHT22;36320;48.860;2.380;2022-11-02T08:35:07;15.70;77.40
4209;DHT22;36320;48.860;2.380;2022-11-02T08:37:34;15.70;77.30
4209;DHT22;36320;48.860;2.380;2022-11-02T08:40:00;15.80;77.60
4209;DHT22;36320;48.860;2.380;2022-11-02T08:42:25;15.80;77.50
4209;DHT22;36320;48.860;2.380;2022-11-02T08:44:51;15.90;77.50
4209;DHT22;36320;48.860;2.380;2022-11-02T08:47:17;15.90;77.40
4209;DHT22;36320;48.860;2.380;2022-11-02T08:49:49;15.90;77.40
4209;DHT22;36320;48.860;2.380;2022-11-02T08:52:17;15.60;77.10
4209;DHT22;36320;48.860;2.380;2022-11-02T08:54:44;15.80;77.40
4209;DHT22;36320;48.860;2.380;2022-11-02T08:57:10;15.90;77.40
4209;DHT22;36320;48.860;2.380;2022-11-02T08:59:35;15.90;77.20
4209;DHT22;36320;48.860;2.380;2022-11-02T09:02:01;16.00;77.30
4209;DHT22;36320;48.860;2.380;2022-11-02T09:04:27;15.80;77.40
4209;DHT22;36320;48.860;2.380;2022-11-02T09:06:54;15.90;77.90
4209;DHT22;36320;48.860;2.380;2022-11-02T09:09:23;15.80;77.30
4209;DHT22;36320;48.860;2.380;2022-11-02T09:11:49;15.80;77.10
4209;DHT22;36320;48.860;2.380;2022-11-02T09:14:15;15.80;77.20
4209;DHT22;36320;48.860;2.380;2022-11-02T09:16:42;15.90;77.10
4209;DHT22;36320;48.860;2.380;2022-11-02T09:19:07;15.90;77.10
4209;DHT22;36320;48.860;2.380;2022-11-02T09:21:33;15.90;77.10
4209;DHT22;36320;48.860;2.380;2022-11-02T09:23:59;15.90;77.10
4209;DHT22;36320;48.860;2.380;2022-11-02T09:26:25;15.90;77.30
4209;DHT22;36320;48.860;2.380;2022-11-02T09:28:51;15.90;77.00
4209;DHT22;36320;48.860;2.380;2022-11-02T09:31:17;16.10;77.70
4209;DHT22;36320;48.860;2.380;2022-11-02T09:33:42;16.20;76.80
4209;DHT22;36320;48.860;2.380;2022-11-02T09:36:08;16.20;76.50
4209;DHT22;36320;48.860;2.380;2022-11-02T09:38:34;16.30;76.60
4209;DHT22;36320;48.860;2.380;2022-11-02T09:41:13;16.30;76.40
4209;DHT22;36320;48.860;2.380;2022-11-02T09:44:02;16.20;76.50
4209;DHT22;36320;48.860;2.380;2022-11-02T09:46:50;16.30;76.50
4209;DHT22;36320;48.860;2.380;2022-11-02T09:49:18;16.50;76.00
4209;DHT22;36320;48.860;2.380;2022-11-02T09:51:54;16.40;75.90
4209;DHT22;36320;48.860;2.380;2022-11-02T09:56:51;16.30;76.10
4209;DHT22;36320;48.860;2.380;2022-11-02T09:59:21;16.30;76.00
4209;DHT22;36320;48.860;2.380;2022-11-02T10:07:41;16.40;75.90
4209;DHT22;36320;48.860;2.380;2022-11-02T10:15:51;16.60;75.60
4209;DHT22;36320;48.860;2.380;2022-11-02T10:18:26;16.40;75.50
4209;DHT22;36320;48.860;2.380;2022-11-02T10:20:58;16.30;75.70
4209;DHT22;36320;48.860;2.380;2022-11-02T10:23:54;16.30;75.80
4209;DHT22;36320;48.860;2.380;2022-11-02T10:26:30;16.30;75.70
4209;DHT22;36320;48.860;2.380;2022-11-02T10:29:46;16.00;75.20
4209;DHT22;36320;48.860;2.380;2022-11-02T10:31:51;16.50;75.60
4209;DHT22;36320;48.860;2.380;2022-11-02T10:34:22;16.50;75.30
4209;DHT22;36320;48.860;2.380;2022-11-02T10:40:13;16.40;74.60
4209;DHT22;36320;48.860;2.380;2022-11-02T10:46:04;16.50;74.20
4209;DHT22;36320;48.860;2.380;2022-11-02T10:51:13;16.50;74.00
4209;DHT22;36320;48.860;2.380;2022-11-02T10:53:50;16.60;73.90
4209;DHT22;36320;48.860;2.380;2022-11-02T10:56:24;16.60;73.90
4209;DHT22;36320;48.860;2.380;2022-11-02T10:59:18;16.60;73.80
4209;DHT22;36320;48.860;2.380;2022-11-02T11:02:09;16.70;73.70
4209;DHT22;36320;48.860;2.380;2022-11-02T11:04:33;16.60;73.30
4209;DHT22;36320;48.860;2.380;2022-11-02T11:07:15;16.90;73.10
4209;DHT22;36320;48.860;2.380;2022-11-02T11:09:46;16.80;72.90
4209;DHT22;36320;48.860;2.380;2022-11-02T11:12:37;16.80;73.00
4209;DHT22;36320;48.860;2.380;2022-11-02T11:15:14;16.90;72.80
4209;DHT22;36320;48.860;2.380;2022-11-02T11:17:44;18.40;74.30
4209;DHT22;36320;48.860;2.380;2022-11-02T11:20:40;17.10;72.70
4209;DHT22;36320;48.860;2.380;2022-11-02T11:23:18;17.20;72.50
4209;DHT22;36320;48.860;2.380;2022-11-02T11:26:05;17.10;73.20
4209;DHT22;36320;48.860;2.380;2022-11-02T11:31:09;17.30;72.30
4209;DHT22;36320;48.860;2.380;2022-11-02T11:36:33;17.70;71.90
4209;DHT22;36320;48.860;2.380;2022-11-02T11:39:23;17.80;71.80
4209;DHT22;36320;48.860;2.380;2022-11-02T11:41:50;18.00;71.30
4209;DHT22;36320;48.860;2.380;2022-11-02T11:44:17;18.30;70.60
4209;DHT22;36320;48.860;2.380;2022-11-02T11:46:52;18.20;70.10
4209;DHT22;36320;48.860;2.380;2022-11-02T11:49:22;18.40;70.00
4209;DHT22;36320;48.860;2.380;2022-11-02T11:51:50;18.30;69.40
4209;DHT22;36320;48.860;2.380;2022-11-02T11:54:28;18.50;69.50
4209;DHT22;36320;48.860;2.380;2022-11-02T11:56:56;18.70;69.30
4209;DHT22;36320;48.860;2.380;2022-11-02T11:59:28;18.70;69.10
4209;DHT22;36320;48.860;2.380;2022-11-02T12:02:01;18.80;68.90
4209;DHT22;36320;48.860;2.380;2022-11-02T12:04:32;19.00;68.60
4209;DHT22;36320;48.860;2.380;2022-11-02T12:10:22;18.70;68.30
4209;DHT22;36320;48.860;2.380;2022-11-02T12:21:14;18.30;69.30
4209;DHT22;36320;48.860;2.380;2022-11-02T12:26:49;18.40;68.80
4209;DHT22;36320;48.860;2.380;2022-11-02T12:35:27;18.60;68.40
4209;DHT22;36320;48.860;2.380;2022-11-02T12:41:27;18.80;67.70
4209;DHT22;36320;48.860;2.380;2022-11-02T12:47:02;18.80;67.20
4209;DHT22;36320;48.860;2.380;2022-11-02T12:50:17;18.90;67.10
4209;DHT22;36320;48.860;2.380;2022-11-02T12:55:43;19.10;66.90
4209;DHT22;36320;48.860;2.380;2022-11-02T12:58:20;19.20;66.10
4209;DHT22;36320;48.860;2.380;2022-11-02T13:00:49;19.30;65.50
4209;DHT22;36320;48.860;2.380;2022-11-02T13:05:59;18.80;65.60
4209;DHT22;36320;48.860;2.380;2022-11-02T13:08:53;18.90;65.90
4209;DHT22;36320;48.860;2.380;2022-11-02T13:11:44;19.20;65.60
4209;DHT22;36320;48.860;2.380;2022-11-02T13:14:17;19.10;64.90
4209;DHT22;36320;48.860;2.380;2022-11-02T13:19:40;19.60;64.70
4209;DHT22;36320;48.860;2.380;2022-11-02T13:22:10;20.00;63.00
4209;DHT22;36320;48.860;2.380;2022-11-02T13:24:44;20.00;62.30
4209;DHT22;36320;48.860;2.380;2022-11-02T13:27:34;20.30;62.50
4209;DHT22;36320;48.860;2.380;2022-11-02T13:30:13;19.60;61.70
4209;DHT22;36320;48.860;2.380;2022-11-02T13:33:29;19.40;61.50
4209;DHT22;36320;48.860;2.380;2022-11-02T13:35:37;19.60;61.20
4209;DHT22;36320;48.860;2.380;2022-11-02T13:38:33;19.70;60.90
4209;DHT22;36320;48.860;2.380;2022-11-02T13:49:41;19.70;60.80
4209;DHT22;36320;48.860;2.380;2022-11-02T13:52:12;19.50;61.00
4209;DHT22;36320;48.860;2.380;2022-11-02T13:54:45;19.40;61.20
4209;DHT22;36320;48.860;2.380;2022-11-02T13:57:38;19.30;61.40
4209;DHT22;36320;48.860;2.380;2022-11-02T14:03:16;19.60;61.50
4209;DHT22;36320;48.860;2.380;2022-11-02T14:05:49;19.40;61.50
4209;DHT22;36320;48.860;2.380;2022-11-02T14:08:33;19.30;61.70
4209;DHT22;36320;48.860;2.380;2022-11-02T14:29:51;19.20;60.80
4209;DHT22;36320;48.860;2.380;2022-11-02T14:35:48;18.90;60.60
4209;DHT22;36320;48.860;2.380;2022-11-02T14:38:53;19.20;60.90
4209;DHT22;36320;48.860;2.380;2022-11-02T14:41:29;19.20;60.70
4209;DHT22;36320;48.860;2.380;2022-11-02T14:46:48;19.10;60.70
4209;DHT22;36320;48.860;2.380;2022-11-02T14:49:48;19.00;61.00
4209;DHT22;36320;48.860;2.380;2022-11-02T14:52:35;18.90;61.20
4209;DHT22;36320;48.860;2.380;2022-11-02T14:57:37;18.90;61.20
4209;DHT22;36320;48.860;2.380;2022-11-02T15:02:43;19.00;61.10
4209;DHT22;36320;48.860;2.380;2022-11-02T15:05:34;18.90;61.30
4209;DHT22;36320;48.860;2.380;2022-11-02T15:08:06;19.00;61.30
4209;DHT22;36320;48.860;2.380;2022-11-02T15:10:42;19.10;61.60
4209;DHT22;36320;48.860;2.380;2022-11-02T15:13:22;19.10;61.50
4209;DHT22;36320;48.860;2.380;2022-11-02T15:16:13;19.10;61.50
4209;DHT22;36320;48.860;2.380;2022-11-02T15:18:38;19.00;61.40
4209;DHT22;36320;48.860;2.380;2022-11-02T15:29:43;18.80;61.20
4209;DHT22;36320;48.860;2.380;2022-11-02T15:32:17;18.80;60.90
4209;DHT22;36320;48.860;2.380;2022-11-02T15:34:49;18.70;60.80
4209;DHT22;36320;48.860;2.380;2022-11-02T15:37:25;18.70;60.70
4209;DHT22;36320;48.860;2.380;2022-11-02T15:40:03;18.60;60.60
4209;DHT22;36320;48.860;2.380;2022-11-02T15:48:41;18.40;60.40
4209;DHT22;36320;48.860;2.380;2022-11-02T15:54:21;18.20;60.10
4209;DHT22;36320;48.860;2.380;2022-11-02T16:02:32;18.20;60.60
4209;DHT22;36320;48.860;2.380;2022-11-02T16:05:02;18.10;60.50
4209;DHT22;36320;48.860;2.380;2022-11-02T16:07:29;18.00;60.80
4209;DHT22;36320;48.860;2.380;2022-11-02T16:10:10;18.00;60.90
4209;DHT22;36320;48.860;2.380;2022-11-02T16:12:36;18.00;60.90
4209;DHT22;36320;48.860;2.380;2022-11-02T16:15:18;18.00;60.80
4209;DHT22;36320;48.860;2.380;2022-11-02T16:17:49;18.00;61.20
4209;DHT22;36320;48.860;2.380;2022-11-02T16:20:28;17.90;61.40
4209;DHT22;36320;48.860;2.380;2022-11-02T16:23:00;17.90;61.80
4209;DHT22;36320;48.860;2.380;2022-11-02T16:25:42;17.90;62.00
4209;DHT22;36320;48.860;2.380;2022-11-02T16:28:34;17.90;62.10
4209;DHT22;36320;48.860;2.380;2022-11-02T16:31:07;17.90;62.20
4209;DHT22;36320;48.860;2.380;2022-11-02T16:33:51;17.90;62.40
4209;DHT22;36320;48.860;2.380;2022-11-02T16:36:28;17.80;62.50
4209;DHT22;36320;48.860;2.380;2022-11-02T16:41:50;17.70;62.60
4209;DHT22;36320;48.860;2.380;2022-11-02T16:44:26;17.70;62.70
4209;DHT22;36320;48.860;2.380;2022-11-02T16:46:59;17.60;62.80
4209;DHT22;36320;48.860;2.380;2022-11-02T16:52:34;17.50;63.10
4209;DHT22;36320;48.860;2.380;2022-11-02T16:54:59;17.60;63.30
4209;DHT22;36320;48.860;2.380;2022-11-02T16:57:30;17.60;63.40
4209;DHT22;36320;48.860;2.380;2022-11-02T17:00:01;17.60;63.40
4209;DHT22;36320;48.860;2.380;2022-11-02T17:02:35;19.10;65.00
4209;DHT22;36320;48.860;2.380;2022-11-02T17:05:13;17.70;63.70
4209;DHT22;36320;48.860;2.380;2022-11-02T17:08:08;17.70;63.80
4209;DHT22;36320;48.860;2.380;2022-11-02T17:10:38;17.60;63.90
4209;DHT22;36320;48.860;2.380;2022-11-02T17:13:05;17.60;64.20
4209;DHT22;36320;48.860;2.380;2022-11-02T17:15:37;17.60;64.40
4209;DHT22;36320;48.860;2.380;2022-11-02T17:20:47;17.50;64.70
4209;DHT22;36320;48.860;2.380;2022-11-02T17:23:35;17.50;65.00
4209;DHT22;36320;48.860;2.380;2022-11-02T17:29:35;17.50;65.40
4209;DHT22;36320;48.860;2.380;2022-11-02T17:31:41;17.50;65.60
4209;DHT22;36320;48.860;2.380;2022-11-02T17:34:09;17.50;65.70
4209;DHT22;36320;48.860;2.380;2022-11-02T17:36:45;17.40;65.90
4209;DHT22;36320;48.860;2.380;2022-11-02T17:39:15;17.40;66.10
4209;DHT22;36320;48.860;2.380;2022-11-02T17:41:42;17.40;66.20
4209;DHT22;36320;48.860;2.380;2022-11-02T17:44:27;17.30;66.40
4209;DHT22;36320;48.860;2.380;2022-11-02T17:46:54;17.30;66.40
4209;DHT22;36320;48.860;2.380;2022-11-02T17:49:20;17.30;66.50
4209;DHT22;36320;48.860;2.380;2022-11-02T17:51:48;17.30;66.70
4209;DHT22;36320;48.860;2.380;2022-11-02T17:54:14;17.30;66.70
4209;DHT22;36320;48.860;2.380;2022-11-02T17:56:41;17.30;66.70
4209;DHT22;36320;48.860;2.380;2022-11-02T17:59:07;17.30;66.70
4209;DHT22;36320;48.860;2.380;2022-11-02T18:01:32;17.30;66.70
4209;DHT22;36320;48.860;2.380;2022-11-02T18:03:58;17.40;66.90
4209;DHT22;36320;48.860;2.380;2022-11-02T18:06:24;17.10;66.90
4209;DHT22;36320;48.860;2.380;2022-11-02T18:08:51;17.00;67.10
4209;DHT22;36320;48.860;2.380;2022-11-02T18:11:35;17.10;67.10
4209;DHT22;36320;48.860;2.380;2022-11-02T18:14:01;17.20;67.30
4209;DHT22;36320;48.860;2.380;2022-11-02T18:16:27;17.20;67.30
4209;DHT22;36320;48.860;2.380;2022-11-02T18:18:54;17.20;67.20
4209;DHT22;36320;48.860;2.380;2022-11-02T18:21:20;17.20;67.20
4209;DHT22;36320;48.860;2.380;2022-11-02T18:23:46;17.10;67.10
4209;DHT22;36320;48.860;2.380;2022-11-02T18:26:11;17.10;68.10
4209;DHT22;36320;48.860;2.380;2022-11-02T18:28:37;17.10;67.50
4209;DHT22;36320;48.860;2.380;2022-11-02T18:31:07;17.10;67.30
4209;DHT22;36320;48.860;2.380;2022-11-02T18:33:34;16.10;66.40
4209;DHT22;36320;48.860;2.380;2022-11-02T18:36:05;17.10;67.50
4209;DHT22;36320;48.860;2.380;2022-11-02T18:38:36;17.10;67.60
4209;DHT22;36320;48.860;2.380;2022-11-02T18:41:06;17.10;68.40
4209;DHT22;36320;48.860;2.380;2022-11-02T18:43:51;17.00;67.70
4209;DHT22;36320;48.860;2.380;2022-11-02T18:46:17;17.00;67.80
4209;DHT22;36320;48.860;2.380;2022-11-02T18:48:44;17.20;68.00
4209;DHT22;36320;48.860;2.380;2022-11-02T18:51:09;17.00;67.90
4209;DHT22;36320;48.860;2.380;2022-11-02T18:53:35;17.00;67.90
4209;DHT22;36320;48.860;2.380;2022-11-02T18:56:06;17.00;68.10
4209;DHT22;36320;48.860;2.380;2022-11-02T18:58:33;17.00;68.20
4209;DHT22;36320;48.860;2.380;2022-11-02T19:01:09;16.90;68.20
4209;DHT22;36320;48.860;2.380;2022-11-02T19:03:35;16.80;68.70
4209;DHT22;36320;48.860;2.380;2022-11-02T19:06:03;16.80;68.60
4209;DHT22;36320;48.860;2.380;2022-11-02T19:09:10;18.20;70.20
4209;DHT22;36320;48.860;2.380;2022-11-02T19:11:46;16.80;69.60
4209;DHT22;36320;48.860;2.380;2022-11-02T19:14:13;16.80;69.00
4209;DHT22;36320;48.860;2.380;2022-11-02T19:16:39;16.80;69.10
4209;DHT22;36320;48.860;2.380;2022-11-02T19:19:06;16.80;69.00
4209;DHT22;36320;48.860;2.380;2022-11-02T19:21:32;16.80;69.10
4209;DHT22;36320;48.860;2.380;2022-11-02T19:23:58;16.80;69.10
4209;DHT22;36320;48.860;2.380;2022-11-02T19:26:23;16.80;69.20
4209;DHT22;36320;48.860;2.380;2022-11-02T19:28:49;16.90;69.20
4209;DHT22;36320;48.860;2.380;2022-11-02T19:31:15;16.90;69.30
4209;DHT22;36320;48.860;2.380;2022-11-02T19:33:41;16.90;69.80
4209;DHT22;36320;48.860;2.380;2022-11-02T19:36:06;16.90;69.50
